Terminal Aerodrome Forecast
Issued by NWS

Home | Current Version | Previous Version | Graphics & Text | Print | Product List | Glossary On
Versions: 1 2 3 4 5 6 7 8 9 10 11 12 13 14 15 16 17 18 19 20 21 22 23 24 25 26 27 28 29
000
FTUS43 KBIS 252330
TAFMOT
TAF
KMOT 252330Z 2600/2624 09010KT P6SM -TSRA BKN050CB OVC090
      TEMPO 2600/2602 2SM -TSRA BKN030 OVC050CB
     FM260200 36008KT P6SM VCTS OVC035CB
     FM260500 34006KT P6SM VCTS OVC025CB
     FM260700 33007KT P6SM VCTS OVC010CB
     FM260900 32006KT P6SM OVC015
     FM261500 29010KT P6SM BKN050=

USA.gov is the U.S. government's official web portal to all federal, state and local government web resources and services.